sensor_id;sensor_type;location;lat;lon;timestamp;P1;durP1;ratioP1;P2;durP2;ratioP2
68858;SDS011;55864;49.238;8.092;2022-10-31T00:01:10;11.68;;;3.53;;
68858;SDS011;55864;49.238;8.092;2022-10-31T00:03:11;8.82;;;3.25;;
68858;SDS011;55864;49.238;8.092;2022-10-31T00:05:12;9.50;;;3.25;;
68858;SDS011;55864;49.238;8.092;2022-10-31T00:07:13;10.05;;;3.13;;
68858;SDS011;55864;49.238;8.092;2022-10-31T00:09:13;9.80;;;3.00;;
68858;SDS011;55864;49.238;8.092;2022-10-31T00:11:15;13.95;;;3.45;;
68858;SDS011;55864;49.238;8.092;2022-10-31T00:13:15;11.63;;;3.50;;
68858;SDS011;55864;49.238;8.092;2022-10-31T00:15:16;9.60;;;3.10;;
68858;SDS011;55864;49.238;8.092;2022-10-31T00:17:16;9.68;;;3.22;;
68858;SDS011;55864;49.238;8.092;2022-10-31T00:19:17;11.27;;;3.25;;
68858;SDS011;55864;49.238;8.092;2022-10-31T00:21:18;10.88;;;3.50;;
68858;SDS011;55864;49.238;8.092;2022-10-31T00:23:18;10.88;;;3.10;;
68858;SDS011;55864;49.238;8.092;2022-10-31T00:25:19;10.57;;;3.30;;
68858;SDS011;55864;49.238;8.092;2022-10-31T00:27:21;11.23;;;3.72;;
68858;SDS011;55864;49.238;8.092;2022-10-31T00:29:21;9.60;;;3.03;;
68858;SDS011;55864;49.238;8.092;2022-10-31T00:31:22;7.75;;;2.78;;
68858;SDS011;55864;49.238;8.092;2022-10-31T00:33:23;13.55;;;3.05;;
68858;SDS011;55864;49.238;8.092;2022-10-31T00:35:24;7.50;;;2.58;;
68858;SDS011;55864;49.238;8.092;2022-10-31T00:37:24;8.07;;;2.80;;
68858;SDS011;55864;49.238;8.092;2022-10-31T00:39:25;10.07;;;2.80;;
68858;SDS011;55864;49.238;8.092;2022-10-31T00:41:25;13.55;;;3.10;;
68858;SDS011;55864;49.238;8.092;2022-10-31T00:43:27;11.43;;;3.00;;
68858;SDS011;55864;49.238;8.092;2022-10-31T00:45:28;8.15;;;2.72;;
68858;SDS011;55864;49.238;8.092;2022-10-31T00:47:29;11.00;;;3.10;;
68858;SDS011;55864;49.238;8.092;2022-10-31T00:49:29;10.45;;;2.95;;
68858;SDS011;55864;49.238;8.092;2022-10-31T00:51:30;10.88;;;2.95;;
68858;SDS011;55864;49.238;8.092;2022-10-31T00:53:32;11.20;;;2.87;;
68858;SDS011;55864;49.238;8.092;2022-10-31T00:55:33;9.32;;;2.80;;
68858;SDS011;55864;49.238;8.092;2022-10-31T00:57:33;8.88;;;3.03;;
68858;SDS011;55864;49.238;8.092;2022-10-31T00:59:35;8.68;;;2.70;;
68858;SDS011;55864;49.238;8.092;2022-10-31T01:01:36;7.78;;;2.70;;
68858;SDS011;55864;49.238;8.092;2022-10-31T01:03:36;13.50;;;3.00;;
68858;SDS011;55864;49.238;8.092;2022-10-31T01:05:37;9.23;;;2.85;;
68858;SDS011;55864;49.238;8.092;2022-10-31T01:07:37;9.38;;;2.95;;
68858;SDS011;55864;49.238;8.092;2022-10-31T01:09:40;11.93;;;3.03;;
68858;SDS011;55864;49.238;8.092;2022-10-31T01:11:40;7.68;;;3.13;;
68858;SDS011;55864;49.238;8.092;2022-10-31T01:13:42;9.02;;;3.10;;
68858;SDS011;55864;49.238;8.092;2022-10-31T01:15:45;9.63;;;2.95;;
68858;SDS011;55864;49.238;8.092;2022-10-31T01:17:45;13.27;;;2.72;;
68858;SDS011;55864;49.238;8.092;2022-10-31T01:19:46;12.35;;;2.53;;
68858;SDS011;55864;49.238;8.092;2022-10-31T01:21:46;10.68;;;3.25;;
68858;SDS011;55864;49.238;8.092;2022-10-31T01:23:47;11.75;;;2.70;;
68858;SDS011;55864;49.238;8.092;2022-10-31T01:25:48;12.27;;;3.10;;
68858;SDS011;55864;49.238;8.092;2022-10-31T01:27:49;13.13;;;2.90;;
68858;SDS011;55864;49.238;8.092;2022-10-31T01:29:49;9.27;;;2.78;;
68858;SDS011;55864;49.238;8.092;2022-10-31T01:31:51;8.18;;;2.55;;
68858;SDS011;55864;49.238;8.092;2022-10-31T01:33:52;10.07;;;3.08;;
68858;SDS011;55864;49.238;8.092;2022-10-31T01:35:53;9.15;;;2.72;;
68858;SDS011;55864;49.238;8.092;2022-10-31T01:37:53;9.10;;;2.50;;
68858;SDS011;55864;49.238;8.092;2022-10-31T01:39:54;9.02;;;2.65;;
68858;SDS011;55864;49.238;8.092;2022-10-31T01:41:55;10.23;;;2.50;;
68858;SDS011;55864;49.238;8.092;2022-10-31T01:43:56;9.77;;;2.90;;
68858;SDS011;55864;49.238;8.092;2022-10-31T01:45:57;11.93;;;2.90;;
68858;SDS011;55864;49.238;8.092;2022-10-31T01:47:59;9.77;;;3.20;;
68858;SDS011;55864;49.238;8.092;2022-10-31T01:50:00;8.60;;;2.92;;
68858;SDS011;55864;49.238;8.092;2022-10-31T01:52:04;9.38;;;3.47;;
68858;SDS011;55864;49.238;8.092;2022-10-31T01:54:10;10.65;;;3.00;;
68858;SDS011;55864;49.238;8.092;2022-10-31T01:56:15;11.43;;;3.45;;
68858;SDS011;55864;49.238;8.092;2022-10-31T01:58:20;8.43;;;3.17;;
68858;SDS011;55864;49.238;8.092;2022-10-31T02:00:25;9.40;;;3.38;;
68858;SDS011;55864;49.238;8.092;2022-10-31T02:02:25;11.40;;;3.40;;
68858;SDS011;55864;49.238;8.092;2022-10-31T02:04:29;12.35;;;3.25;;
68858;SDS011;55864;49.238;8.092;2022-10-31T02:06:32;11.48;;;3.53;;
68858;SDS011;55864;49.238;8.092;2022-10-31T02:08:36;8.82;;;2.88;;
68858;SDS011;55864;49.238;8.092;2022-10-31T02:10:39;13.10;;;3.20;;
68858;SDS011;55864;49.238;8.092;2022-10-31T02:12:41;6.63;;;2.75;;
68858;SDS011;55864;49.238;8.092;2022-10-31T02:14:44;11.52;;;3.28;;
68858;SDS011;55864;49.238;8.092;2022-10-31T02:16:44;10.57;;;3.38;;
68858;SDS011;55864;49.238;8.092;2022-10-31T02:18:45;9.23;;;2.90;;
68858;SDS011;55864;49.238;8.092;2022-10-31T02:20:51;8.52;;;2.67;;
68858;SDS011;55864;49.238;8.092;2022-10-31T02:25:53;9.63;;;3.42;;
68858;SDS011;55864;49.238;8.092;2022-10-31T02:28:31;10.68;;;3.17;;
68858;SDS011;55864;49.238;8.092;2022-10-31T02:30:50;7.03;;;3.03;;
68858;SDS011;55864;49.238;8.092;2022-10-31T02:33:04;11.15;;;3.30;;
68858;SDS011;55864;49.238;8.092;2022-10-31T02:35:17;10.65;;;3.17;;
68858;SDS011;55864;49.238;8.092;2022-10-31T02:37:31;9.88;;;3.40;;
68858;SDS011;55864;49.238;8.092;2022-10-31T02:39:38;8.38;;;2.95;;
68858;SDS011;55864;49.238;8.092;2022-10-31T02:41:57;11.15;;;2.95;;
68858;SDS011;55864;49.238;8.092;2022-10-31T02:44:05;13.30;;;3.85;;
68858;SDS011;55864;49.238;8.092;2022-10-31T02:46:13;11.82;;;3.40;;
68858;SDS011;55864;49.238;8.092;2022-10-31T02:48:19;11.88;;;3.30;;
68858;SDS011;55864;49.238;8.092;2022-10-31T02:50:25;8.82;;;3.38;;
68858;SDS011;55864;49.238;8.092;2022-10-31T02:52:29;7.15;;;3.10;;
68858;SDS011;55864;49.238;8.092;2022-10-31T02:54:36;8.45;;;3.05;;
68858;SDS011;55864;49.238;8.092;2022-10-31T02:56:36;8.57;;;3.33;;
68858;SDS011;55864;49.238;8.092;2022-10-31T02:58:38;10.30;;;3.10;;
68858;SDS011;55864;49.238;8.092;2022-10-31T03:00:43;10.45;;;3.15;;
68858;SDS011;55864;49.238;8.092;2022-10-31T03:02:57;9.82;;;3.10;;
68858;SDS011;55864;49.238;8.092;2022-10-31T03:05:14;8.37;;;3.27;;
68858;SDS011;55864;49.238;8.092;2022-10-31T03:07:29;14.02;;;3.22;;
68858;SDS011;55864;49.238;8.092;2022-10-31T03:09:39;8.90;;;3.05;;
68858;SDS011;55864;49.238;8.092;2022-10-31T03:11:49;10.13;;;3.10;;
68858;SDS011;55864;49.238;8.092;2022-10-31T03:14:00;7.82;;;3.20;;
68858;SDS011;55864;49.238;8.092;2022-10-31T03:16:09;14.93;;;3.80;;
68858;SDS011;55864;49.238;8.092;2022-10-31T03:18:16;8.98;;;3.10;;
68858;SDS011;55864;49.238;8.092;2022-10-31T03:20:29;10.25;;;3.47;;
68858;SDS011;55864;49.238;8.092;2022-10-31T03:22:33;9.88;;;3.50;;
68858;SDS011;55864;49.238;8.092;2022-10-31T03:24:38;9.05;;;3.40;;
68858;SDS011;55864;49.238;8.092;2022-10-31T03:26:40;10.63;;;3.60;;
68858;SDS011;55864;49.238;8.092;2022-10-31T03:28:46;11.48;;;3.05;;
68858;SDS011;55864;49.238;8.092;2022-10-31T03:30:52;14.35;;;3.55;;
68858;SDS011;55864;49.238;8.092;2022-10-31T03:32:55;13.88;;;3.60;;
68858;SDS011;55864;49.238;8.092;2022-10-31T03:35:00;9.55;;;3.47;;
68858;SDS011;55864;49.238;8.092;2022-10-31T03:37:04;9.65;;;3.30;;
68858;SDS011;55864;49.238;8.092;2022-10-31T03:39:09;9.48;;;2.88;;
68858;SDS011;55864;49.238;8.092;2022-10-31T03:41:13;9.68;;;3.08;;
68858;SDS011;55864;49.238;8.092;2022-10-31T03:43:19;10.48;;;3.55;;
68858;SDS011;55864;49.238;8.092;2022-10-31T03:45:25;11.27;;;3.40;;
68858;SDS011;55864;49.238;8.092;2022-10-31T03:47:30;9.80;;;3.30;;
68858;SDS011;55864;49.238;8.092;2022-10-31T03:49:33;11.93;;;3.35;;
68858;SDS011;55864;49.238;8.092;2022-10-31T03:51:37;9.18;;;3.45;;
68858;SDS011;55864;49.238;8.092;2022-10-31T03:53:44;10.85;;;3.35;;
68858;SDS011;55864;49.238;8.092;2022-10-31T03:55:54;11.20;;;4.00;;
68858;SDS011;55864;49.238;8.092;2022-10-31T03:58:02;8.25;;;3.65;;
68858;SDS011;55864;49.238;8.092;2022-10-31T04:00:07;13.93;;;4.55;;
68858;SDS011;55864;49.238;8.092;2022-10-31T04:02:18;15.68;;;3.83;;
68858;SDS011;55864;49.238;8.092;2022-10-31T04:04:24;14.60;;;3.78;;
68858;SDS011;55864;49.238;8.092;2022-10-31T04:06:25;12.45;;;3.70;;
68858;SDS011;55864;49.238;8.092;2022-10-31T04:08:29;9.20;;;3.80;;
68858;SDS011;55864;49.238;8.092;2022-10-31T04:10:33;8.63;;;3.92;;
68858;SDS011;55864;49.238;8.092;2022-10-31T04:14:58;10.65;;;3.40;;
68858;SDS011;55864;49.238;8.092;2022-10-31T04:19:10;10.40;;;3.47;;
68858;SDS011;55864;49.238;8.092;2022-10-31T04:21:11;11.27;;;3.72;;
68858;SDS011;55864;49.238;8.092;2022-10-31T04:23:13;9.43;;;3.95;;
68858;SDS011;55864;49.238;8.092;2022-10-31T04:25:22;9.85;;;3.78;;
68858;SDS011;55864;49.238;8.092;2022-10-31T04:27:23;11.77;;;3.77;;
68858;SDS011;55864;49.238;8.092;2022-10-31T04:29:23;8.48;;;3.75;;
68858;SDS011;55864;49.238;8.092;2022-10-31T04:31:24;14.40;;;4.05;;
68858;SDS011;55864;49.238;8.092;2022-10-31T04:33:28;12.52;;;3.70;;
68858;SDS011;55864;49.238;8.092;2022-10-31T04:35:40;11.65;;;3.90;;
68858;SDS011;55864;49.238;8.092;2022-10-31T04:37:41;11.32;;;4.13;;
68858;SDS011;55864;49.238;8.092;2022-10-31T04:39:41;10.27;;;3.60;;
68858;SDS011;55864;49.238;8.092;2022-10-31T04:42:02;10.93;;;3.90;;
68858;SDS011;55864;49.238;8.092;2022-10-31T04:44:03;11.23;;;4.93;;
68858;SDS011;55864;49.238;8.092;2022-10-31T04:46:04;11.98;;;4.38;;
68858;SDS011;55864;49.238;8.092;2022-10-31T04:48:05;10.35;;;4.30;;
68858;SDS011;55864;49.238;8.092;2022-10-31T04:50:08;13.18;;;4.57;;
68858;SDS011;55864;49.238;8.092;2022-10-31T04:52:11;14.40;;;4.60;;
68858;SDS011;55864;49.238;8.092;2022-10-31T04:54:12;10.68;;;4.95;;
68858;SDS011;55864;49.238;8.092;2022-10-31T04:56:48;11.15;;;4.57;;
68858;SDS011;55864;49.238;8.092;2022-10-31T04:58:55;11.20;;;4.53;;
68858;SDS011;55864;49.238;8.092;2022-10-31T05:00:58;10.05;;;4.80;;
68858;SDS011;55864;49.238;8.092;2022-10-31T05:02:58;13.32;;;5.40;;
68858;SDS011;55864;49.238;8.092;2022-10-31T05:05:00;13.50;;;5.03;;
68858;SDS011;55864;49.238;8.092;2022-10-31T05:07:01;12.57;;;4.95;;
68858;SDS011;55864;49.238;8.092;2022-10-31T05:09:01;11.50;;;5.05;;
68858;SDS011;55864;49.238;8.092;2022-10-31T05:11:03;12.80;;;5.05;;
68858;SDS011;55864;49.238;8.092;2022-10-31T05:13:04;12.07;;;5.40;;
68858;SDS011;55864;49.238;8.092;2022-10-31T05:15:25;14.05;;;5.10;;
68858;SDS011;55864;49.238;8.092;2022-10-31T05:17:47;12.20;;;4.97;;
68858;SDS011;55864;49.238;8.092;2022-10-31T05:20:11;14.45;;;4.93;;
68858;SDS011;55864;49.238;8.092;2022-10-31T05:22:41;116.85;;;22.40;;
68858;SDS011;55864;49.238;8.092;2022-10-31T05:24:42;63.35;;;14.82;;
68858;SDS011;55864;49.238;8.092;2022-10-31T05:26:43;38.80;;;10.15;;
68858;SDS011;55864;49.238;8.092;2022-10-31T05:28:44;32.33;;;8.68;;
68858;SDS011;55864;49.238;8.092;2022-10-31T05:30:46;45.33;;;11.90;;
68858;SDS011;55864;49.238;8.092;2022-10-31T05:32:50;56.33;;;12.20;;
68858;SDS011;55864;49.238;8.092;2022-10-31T05:35:15;41.95;;;9.73;;
68858;SDS011;55864;49.238;8.092;2022-10-31T05:37:35;54.25;;;11.07;;
68858;SDS011;55864;49.238;8.092;2022-10-31T05:39:36;34.65;;;8.05;;
68858;SDS011;55864;49.238;8.092;2022-10-31T05:41:42;26.80;;;6.45;;
68858;SDS011;55864;49.238;8.092;2022-10-31T05:43:49;78.40;;;19.10;;
68858;SDS011;55864;49.238;8.092;2022-10-31T05:45:54;120.47;;;30.65;;
68858;SDS011;55864;49.238;8.092;2022-10-31T05:48:14;300.10;;;78.22;;
68858;SDS011;55864;49.238;8.092;2022-10-31T05:50:33;78.78;;;22.23;;
68858;SDS011;55864;49.238;8.092;2022-10-31T05:52:42;407.25;;;124.45;;
68858;SDS011;55864;49.238;8.092;2022-10-31T05:54:59;357.38;;;101.90;;
68858;SDS011;55864;49.238;8.092;2022-10-31T05:57:02;335.10;;;101.88;;
68858;SDS011;55864;49.238;8.092;2022-10-31T05:59:03;182.45;;;55.65;;
68858;SDS011;55864;49.238;8.092;2022-10-31T06:01:05;92.32;;;30.60;;
68858;SDS011;55864;49.238;8.092;2022-10-31T06:03:07;47.20;;;15.90;;
68858;SDS011;55864;49.238;8.092;2022-10-31T06:05:18;47.13;;;13.57;;
68858;SDS011;55864;49.238;8.092;2022-10-31T06:07:20;41.20;;;10.75;;
68858;SDS011;55864;49.238;8.092;2022-10-31T06:09:20;33.03;;;10.50;;
68858;SDS011;55864;49.238;8.092;2022-10-31T06:11:21;27.88;;;8.70;;
68858;SDS011;55864;49.238;8.092;2022-10-31T06:13:37;23.33;;;6.07;;
68858;SDS011;55864;49.238;8.092;2022-10-31T06:15:48;11.98;;;5.03;;
68858;SDS011;55864;49.238;8.092;2022-10-31T06:17:57;14.80;;;4.63;;
68858;SDS011;55864;49.238;8.092;2022-10-31T06:20:00;14.02;;;5.15;;
68858;SDS011;55864;49.238;8.092;2022-10-31T06:22:04;12.30;;;3.95;;
68858;SDS011;55864;49.238;8.092;2022-10-31T06:24:06;13.80;;;3.75;;
68858;SDS011;55864;49.238;8.092;2022-10-31T06:26:25;9.95;;;3.60;;
68858;SDS011;55864;49.238;8.092;2022-10-31T06:28:27;11.98;;;3.78;;
68858;SDS011;55864;49.238;8.092;2022-10-31T06:30:37;11.48;;;3.80;;
68858;SDS011;55864;49.238;8.092;2022-10-31T06:32:38;11.23;;;3.83;;
68858;SDS011;55864;49.238;8.092;2022-10-31T06:34:40;12.00;;;4.10;;
68858;SDS011;55864;49.238;8.092;2022-10-31T06:38:42;13.25;;;4.57;;
68858;SDS011;55864;49.238;8.092;2022-10-31T06:40:44;16.52;;;5.20;;
68858;SDS011;55864;49.238;8.092;2022-10-31T06:42:57;13.75;;;4.90;;
68858;SDS011;55864;49.238;8.092;2022-10-31T06:44:58;15.27;;;4.90;;
68858;SDS011;55864;49.238;8.092;2022-10-31T06:47:17;14.07;;;4.43;;
68858;SDS011;55864;49.238;8.092;2022-10-31T06:49:21;10.38;;;4.18;;
68858;SDS011;55864;49.238;8.092;2022-10-31T06:51:29;12.20;;;4.20;;
68858;SDS011;55864;49.238;8.092;2022-10-31T06:53:29;12.32;;;4.03;;
68858;SDS011;55864;49.238;8.092;2022-10-31T06:55:30;14.40;;;4.75;;
68858;SDS011;55864;49.238;8.092;2022-10-31T06:57:31;11.80;;;4.32;;
68858;SDS011;55864;49.238;8.092;2022-10-31T06:59:32;15.60;;;4.47;;
68858;SDS011;55864;49.238;8.092;2022-10-31T07:03:36;15.15;;;5.93;;
68858;SDS011;55864;49.238;8.092;2022-10-31T07:05:37;12.45;;;5.00;;
68858;SDS011;55864;49.238;8.092;2022-10-31T07:07:40;14.15;;;4.85;;
68858;SDS011;55864;49.238;8.092;2022-10-31T07:09:41;17.40;;;6.18;;
68858;SDS011;55864;49.238;8.092;2022-10-31T07:11:45;20.13;;;9.15;;
68858;SDS011;55864;49.238;8.092;2022-10-31T07:13:46;17.02;;;6.85;;
68858;SDS011;55864;49.238;8.092;2022-10-31T07:15:50;16.98;;;6.88;;
68858;SDS011;55864;49.238;8.092;2022-10-31T07:17:51;19.98;;;6.50;;
68858;SDS011;55864;49.238;8.092;2022-10-31T07:19:52;14.98;;;6.65;;
68858;SDS011;55864;49.238;8.092;2022-10-31T07:21:52;18.75;;;6.78;;
68858;SDS011;55864;49.238;8.092;2022-10-31T07:23:54;19.13;;;6.63;;
68858;SDS011;55864;49.238;8.092;2022-10-31T07:26:24;14.20;;;5.47;;
68858;SDS011;55864;49.238;8.092;2022-10-31T07:28:26;14.23;;;5.28;;
68858;SDS011;55864;49.238;8.092;2022-10-31T07:30:27;12.40;;;5.90;;
68858;SDS011;55864;49.238;8.092;2022-10-31T07:32:36;19.40;;;6.15;;
68858;SDS011;55864;49.238;8.092;2022-10-31T07:34:37;13.65;;;5.75;;
68858;SDS011;55864;49.238;8.092;2022-10-31T07:38:52;12.45;;;5.03;;
68858;SDS011;55864;49.238;8.092;2022-10-31T07:40:54;12.18;;;4.82;;
68858;SDS011;55864;49.238;8.092;2022-10-31T07:42:54;14.48;;;5.07;;
68858;SDS011;55864;49.238;8.092;2022-10-31T07:45:30;11.98;;;4.90;;
68858;SDS011;55864;49.238;8.092;2022-10-31T07:47:49;13.90;;;5.47;;
68858;SDS011;55864;49.238;8.092;2022-10-31T07:50:12;13.43;;;5.35;;
68858;SDS011;55864;49.238;8.092;2022-10-31T07:52:32;13.05;;;5.07;;
68858;SDS011;55864;49.238;8.092;2022-10-31T07:54:35;14.07;;;5.80;;
68858;SDS011;55864;49.238;8.092;2022-10-31T07:56:37;13.43;;;5.28;;
68858;SDS011;55864;49.238;8.092;2022-10-31T07:58:37;16.10;;;5.65;;
68858;SDS011;55864;49.238;8.092;2022-10-31T08:00:38;16.17;;;6.00;;
68858;SDS011;55864;49.238;8.092;2022-10-31T08:05:02;15.77;;;5.85;;
68858;SDS011;55864;49.238;8.092;2022-10-31T08:07:03;14.00;;;5.70;;
68858;SDS011;55864;49.238;8.092;2022-10-31T08:09:08;13.55;;;6.03;;
68858;SDS011;55864;49.238;8.092;2022-10-31T08:11:08;11.50;;;5.43;;
68858;SDS011;55864;49.238;8.092;2022-10-31T08:13:11;12.10;;;5.80;;
68858;SDS011;55864;49.238;8.092;2022-10-31T08:15:16;15.02;;;5.80;;
68858;SDS011;55864;49.238;8.092;2022-10-31T08:17:18;11.60;;;5.38;;
68858;SDS011;55864;49.238;8.092;2022-10-31T08:19:33;13.13;;;5.15;;
68858;SDS011;55864;49.238;8.092;2022-10-31T08:21:34;16.10;;;5.97;;
68858;SDS011;55864;49.238;8.092;2022-10-31T08:23:35;18.83;;;5.93;;
68858;SDS011;55864;49.238;8.092;2022-10-31T08:25:36;12.63;;;6.10;;
68858;SDS011;55864;49.238;8.092;2022-10-31T08:27:38;14.10;;;6.18;;
68858;SDS011;55864;49.238;8.092;2022-10-31T08:29:40;14.30;;;6.07;;
68858;SDS011;55864;49.238;8.092;2022-10-31T08:31:41;13.95;;;5.95;;
68858;SDS011;55864;49.238;8.092;2022-10-31T08:34:00;17.73;;;5.97;;
68858;SDS011;55864;49.238;8.092;2022-10-31T08:36:27;13.27;;;5.47;;
68858;SDS011;55864;49.238;8.092;2022-10-31T08:38:58;15.23;;;6.20;;
68858;SDS011;55864;49.238;8.092;2022-10-31T08:40:58;15.32;;;5.68;;
68858;SDS011;55864;49.238;8.092;2022-10-31T08:43:00;14.40;;;5.45;;
68858;SDS011;55864;49.238;8.092;2022-10-31T08:45:04;13.60;;;5.80;;
68858;SDS011;55864;49.238;8.092;2022-10-31T08:47:06;16.40;;;5.88;;
68858;SDS011;55864;49.238;8.092;2022-10-31T08:49:08;12.70;;;5.50;;
68858;SDS011;55864;49.238;8.092;2022-10-31T08:51:09;12.02;;;5.22;;
68858;SDS011;55864;49.238;8.092;2022-10-31T08:53:11;16.67;;;5.75;;
68858;SDS011;55864;49.238;8.092;2022-10-31T08:55:15;11.30;;;5.32;;
68858;SDS011;55864;49.238;8.092;2022-10-31T08:57:36;14.38;;;5.00;;
68858;SDS011;55864;49.238;8.092;2022-10-31T08:59:36;12.30;;;5.75;;
68858;SDS011;55864;49.238;8.092;2022-10-31T09:01:58;17.02;;;5.80;;
68858;SDS011;55864;49.238;8.092;2022-10-31T09:03:59;11.80;;;5.05;;
68858;SDS011;55864;49.238;8.092;2022-10-31T09:06:01;12.63;;;5.45;;
68858;SDS011;55864;49.238;8.092;2022-10-31T09:08:03;13.07;;;5.37;;
68858;SDS011;55864;49.238;8.092;2022-10-31T09:10:06;14.48;;;5.50;;
68858;SDS011;55864;49.238;8.092;2022-10-31T09:12:10;12.32;;;5.55;;
68858;SDS011;55864;49.238;8.092;2022-10-31T09:14:29;13.18;;;6.18;;
68858;SDS011;55864;49.238;8.092;2022-10-31T09:16:50;13.32;;;5.13;;
68858;SDS011;55864;49.238;8.092;2022-10-31T09:18:57;13.13;;;5.63;;
68858;SDS011;55864;49.238;8.092;2022-10-31T09:20:58;11.55;;;5.60;;
68858;SDS011;55864;49.238;8.092;2022-10-31T09:25:04;12.40;;;5.38;;
68858;SDS011;55864;49.238;8.092;2022-10-31T09:27:04;13.07;;;5.75;;
68858;SDS011;55864;49.238;8.092;2022-10-31T09:29:05;13.57;;;5.55;;
68858;SDS011;55864;49.238;8.092;2022-10-31T09:31:06;15.73;;;5.95;;
68858;SDS011;55864;49.238;8.092;2022-10-31T09:33:33;14.10;;;5.47;;
68858;SDS011;55864;49.238;8.092;2022-10-31T09:35:55;14.40;;;5.80;;
68858;SDS011;55864;49.238;8.092;2022-10-31T09:37:59;15.00;;;5.55;;
68858;SDS011;55864;49.238;8.092;2022-10-31T09:40:00;17.20;;;6.20;;
68858;SDS011;55864;49.238;8.092;2022-10-31T09:42:19;13.05;;;5.65;;
68858;SDS011;55864;49.238;8.092;2022-10-31T09:44:34;12.98;;;6.07;;
68858;SDS011;55864;49.238;8.092;2022-10-31T09:46:55;16.00;;;5.95;;
68858;SDS011;55864;49.238;8.092;2022-10-31T09:49:12;15.18;;;6.35;;
68858;SDS011;55864;49.238;8.092;2022-10-31T09:51:30;17.67;;;6.35;;
68858;SDS011;55864;49.238;8.092;2022-10-31T09:53:46;17.73;;;6.07;;
68858;SDS011;55864;49.238;8.092;2022-10-31T09:55:54;13.13;;;5.68;;
68858;SDS011;55864;49.238;8.092;2022-10-31T09:57:55;14.35;;;6.00;;
68858;SDS011;55864;49.238;8.092;2022-10-31T09:59:56;16.73;;;5.68;;
68858;SDS011;55864;49.238;8.092;2022-10-31T10:01:59;14.57;;;6.03;;
68858;SDS011;55864;49.238;8.092;2022-10-31T10:04:08;12.80;;;6.03;;
68858;SDS011;55864;49.238;8.092;2022-10-31T10:06:39;13.10;;;5.80;;
68858;SDS011;55864;49.238;8.092;2022-10-31T10:09:17;14.15;;;5.97;;
68858;SDS011;55864;49.238;8.092;2022-10-31T10:11:47;18.33;;;6.40;;
68858;SDS011;55864;49.238;8.092;2022-10-31T10:13:57;14.13;;;5.80;;
68858;SDS011;55864;49.238;8.092;2022-10-31T10:16:13;10.88;;;5.72;;
68858;SDS011;55864;49.238;8.092;2022-10-31T10:18:27;17.45;;;6.15;;
68858;SDS011;55864;49.238;8.092;2022-10-31T10:20:35;19.30;;;6.60;;
68858;SDS011;55864;49.238;8.092;2022-10-31T10:22:46;19.20;;;7.15;;
68858;SDS011;55864;49.238;8.092;2022-10-31T10:24:54;13.38;;;5.85;;
68858;SDS011;55864;49.238;8.092;2022-10-31T10:27:05;17.45;;;6.57;;
68858;SDS011;55864;49.238;8.092;2022-10-31T10:29:27;13.02;;;5.85;;
68858;SDS011;55864;49.238;8.092;2022-10-31T10:31:34;16.95;;;6.53;;
68858;SDS011;55864;49.238;8.092;2022-10-31T10:33:39;17.80;;;6.53;;
68858;SDS011;55864;49.238;8.092;2022-10-31T10:35:44;15.18;;;6.05;;
68858;SDS011;55864;49.238;8.092;2022-10-31T10:37:50;16.55;;;7.05;;
68858;SDS011;55864;49.238;8.092;2022-10-31T10:39:54;14.82;;;6.53;;
68858;SDS011;55864;49.238;8.092;2022-10-31T10:41:57;19.65;;;6.60;;
68858;SDS011;55864;49.238;8.092;2022-10-31T10:43:59;17.97;;;7.10;;
68858;SDS011;55864;49.238;8.092;2022-10-31T10:46:08;16.65;;;6.75;;
68858;SDS011;55864;49.238;8.092;2022-10-31T10:48:20;15.50;;;6.75;;
68858;SDS011;55864;49.238;8.092;2022-10-31T10:50:31;14.20;;;6.40;;
68858;SDS011;55864;49.238;8.092;2022-10-31T10:52:37;18.50;;;7.35;;
68858;SDS011;55864;49.238;8.092;2022-10-31T10:54:49;16.88;;;7.45;;
68858;SDS011;55864;49.238;8.092;2022-10-31T10:57:01;18.52;;;7.28;;
68858;SDS011;55864;49.238;8.092;2022-10-31T10:59:07;21.83;;;7.30;;
68858;SDS011;55864;49.238;8.092;2022-10-31T11:01:11;15.52;;;7.50;;
68858;SDS011;55864;49.238;8.092;2022-10-31T11:03:12;16.23;;;7.35;;
68858;SDS011;55864;49.238;8.092;2022-10-31T11:05:15;16.73;;;7.68;;
68858;SDS011;55864;49.238;8.092;2022-10-31T11:07:22;17.60;;;7.20;;
68858;SDS011;55864;49.238;8.092;2022-10-31T11:09:23;15.75;;;6.90;;
68858;SDS011;55864;49.238;8.092;2022-10-31T11:11:26;15.88;;;7.03;;
68858;SDS011;55864;49.238;8.092;2022-10-31T11:13:28;16.17;;;6.95;;
68858;SDS011;55864;49.238;8.092;2022-10-31T11:15:31;16.15;;;7.65;;
68858;SDS011;55864;49.238;8.092;2022-10-31T11:17:36;18.23;;;7.45;;
68858;SDS011;55864;49.238;8.092;2022-10-31T11:19:38;18.95;;;7.80;;
68858;SDS011;55864;49.238;8.092;2022-10-31T11:21:39;17.55;;;7.63;;
68858;SDS011;55864;49.238;8.092;2022-10-31T11:23:40;19.58;;;8.00;;
68858;SDS011;55864;49.238;8.092;2022-10-31T11:25:47;19.52;;;8.45;;
68858;SDS011;55864;49.238;8.092;2022-10-31T11:27:59;17.50;;;9.05;;
68858;SDS011;55864;49.238;8.092;2022-10-31T11:30:04;15.57;;;7.70;;
68858;SDS011;55864;49.238;8.092;2022-10-31T11:32:08;17.40;;;8.93;;
68858;SDS011;55864;49.238;8.092;2022-10-31T11:34:22;19.05;;;8.20;;
68858;SDS011;55864;49.238;8.092;2022-10-31T11:36:29;19.75;;;7.85;;
68858;SDS011;55864;49.238;8.092;2022-10-31T11:38:33;18.33;;;7.68;;
68858;SDS011;55864;49.238;8.092;2022-10-31T11:40:39;17.20;;;7.43;;
68858;SDS011;55864;49.238;8.092;2022-10-31T11:42:53;16.90;;;7.13;;
68858;SDS011;55864;49.238;8.092;2022-10-31T11:44:58;17.27;;;7.72;;
68858;SDS011;55864;49.238;8.092;2022-10-31T11:47:00;17.15;;;7.97;;
68858;SDS011;55864;49.238;8.092;2022-10-31T11:49:02;16.98;;;6.72;;
68858;SDS011;55864;49.238;8.092;2022-10-31T11:51:05;17.98;;;7.78;;
68858;SDS011;55864;49.238;8.092;2022-10-31T11:53:10;20.00;;;8.30;;
68858;SDS011;55864;49.238;8.092;2022-10-31T11:55:15;18.17;;;7.88;;
68858;SDS011;55864;49.238;8.092;2022-10-31T11:57:24;19.23;;;7.82;;
68858;SDS011;55864;49.238;8.092;2022-10-31T11:59:28;15.40;;;7.35;;
68858;SDS011;55864;49.238;8.092;2022-10-31T12:01:31;15.85;;;6.88;;
68858;SDS011;55864;49.238;8.092;2022-10-31T12:03:43;20.52;;;7.85;;
68858;SDS011;55864;49.238;8.092;2022-10-31T12:05:56;25.70;;;7.70;;
68858;SDS011;55864;49.238;8.092;2022-10-31T12:08:00;17.67;;;7.35;;
68858;SDS011;55864;49.238;8.092;2022-10-31T12:10:01;16.75;;;8.05;;
68858;SDS011;55864;49.238;8.092;2022-10-31T12:12:12;16.65;;;7.50;;
68858;SDS011;55864;49.238;8.092;2022-10-31T12:14:28;21.63;;;8.13;;
68858;SDS011;55864;49.238;8.092;2022-10-31T12:16:36;18.48;;;7.43;;
68858;SDS011;55864;49.238;8.092;2022-10-31T12:21:14;15.85;;;7.40;;
68858;SDS011;55864;49.238;8.092;2022-10-31T12:23:25;16.55;;;7.38;;
68858;SDS011;55864;49.238;8.092;2022-10-31T12:25:39;18.63;;;7.88;;
68858;SDS011;55864;49.238;8.092;2022-10-31T12:27:53;15.38;;;6.90;;
68858;SDS011;55864;49.238;8.092;2022-10-31T12:30:02;17.92;;;7.50;;
68858;SDS011;55864;49.238;8.092;2022-10-31T12:32:18;18.05;;;8.43;;
68858;SDS011;55864;49.238;8.092;2022-10-31T12:37:15;17.42;;;7.53;;
68858;SDS011;55864;49.238;8.092;2022-10-31T12:39:32;17.27;;;7.68;;
68858;SDS011;55864;49.238;8.092;2022-10-31T12:41:45;20.37;;;7.53;;
68858;SDS011;55864;49.238;8.092;2022-10-31T12:43:48;18.42;;;7.28;;
68858;SDS011;55864;49.238;8.092;2022-10-31T12:45:56;17.80;;;7.95;;
68858;SDS011;55864;49.238;8.092;2022-10-31T12:50:33;17.40;;;6.72;;
68858;SDS011;55864;49.238;8.092;2022-10-31T12:52:46;22.90;;;8.15;;
68858;SDS011;55864;49.238;8.092;2022-10-31T12:54:58;15.38;;;7.85;;
68858;SDS011;55864;49.238;8.092;2022-10-31T12:57:11;19.23;;;8.32;;